Time;durP1;ratioP1;P1;durP2;ratioP2;P2;SDS_P1;SDS_P2;PMS_P1;PMS_P2;Temp;Humidity;BMP_temperature;BMP_pressure;BME280_temperature;BME280_humidity;BME280_pressure;Samples;Min_cycle;Max_cycle;Signal;HPM_P1;HPM_P2
2022/12/11 00:00:19;;;;;;;;;;;;;;;5.33;55.69;100119.91;4786199;29;6926;-73
2022/12/11 00:02:44;;;;;;;;;;;;;;;5.32;55.64;100120.69;4791336;29;6773;-73
2022/12/11 00:05:10;;;;;;;;;;;;;;;5.29;56.01;100112.84;4769875;29;7010;-72
2022/12/11 00:07:35;;;;;;;;;;;;;;;5.25;55.40;100111.78;4777110;29;8424;-73
2022/12/11 00:10:01;;;;;;;;;;;;;;;5.22;55.53;100115.81;4790982;29;6976;-73
2022/12/11 00:12:30;;;;;;;;;;;;;;;5.19;55.84;100116.47;4804839;29;6785;-73
2022/12/11 00:14:56;;;;;;;;;;;;;;;5.20;56.33;100117.34;4785895;29;6789;-72
2022/12/11 00:17:21;;;;;;;;;;;;;;;5.21;55.88;100120.00;4794499;29;6980;-72
2022/12/11 00:19:47;;;;;;;;;;;;;;;5.23;56.17;100115.03;4806282;29;6847;-73
2022/12/11 00:22:13;;;;;;;;;;;;;;;5.24;55.72;100120.19;4808175;29;6991;-73
2022/12/11 00:24:38;;;;;;;;;;;;;;;5.26;55.48;100110.13;4806519;29;6781;-73
2022/12/11 00:27:04;;;;;;;;;;;;;;;5.28;56.01;100111.09;4793227;29;6781;-73
2022/12/11 00:29:29;;;;;;;;;;;;;;;5.28;55.35;100116.19;4791502;29;9100;-73
2022/12/11 00:31:55;;;;;;;;;;;;;;;5.29;55.73;100112.84;4803751;29;6869;-73
2022/12/11 00:34:21;;;;;;;;;;;;;;;5.30;55.68;100113.75;4804762;29;6988;-73
2022/12/11 00:36:46;;;;;;;;;;;;;;;5.30;55.96;100112.06;4804315;29;9162;-73
2022/12/11 00:39:12;;;;;;;;;;;;;;;5.30;55.81;100109.53;4788949;29;6789;-72
2022/12/11 00:41:37;;;;;;;;;;;;;;;5.28;55.57;100111.09;4783717;29;7600;-73
2022/12/11 00:44:04;;;;;;;;;;;;;;;5.29;55.82;100117.94;4788854;29;7089;-73
2022/12/11 00:46:29;;;;;;;;;;;;;;;5.29;55.86;100112.84;4786917;29;6793;-73
2022/12/11 00:48:55;;;;;;;;;;;;;;;5.28;55.46;100106.00;4804334;29;7786;-73
2022/12/11 00:51:21;;;;;;;;;;;;;;;5.26;55.87;100105.03;4805755;29;6785;-73
2022/12/11 00:53:46;;;;;;;;;;;;;;;5.23;56.10;100108.25;4791386;29;6785;-73
2022/12/11 00:56:19;;;;;;;;;;;;;;;5.23;55.69;100110.78;4788598;29;6993;-73
2022/12/11 00:58:47;;;;;;;;;;;;;;;5.24;55.83;100111.69;4776741;29;8632;-73
2022/12/11 01:01:24;;;;;;;;;;;;;;;5.23;56.07;100110.78;4782824;29;7166;-73
2022/12/11 01:03:51;;;;;;;;;;;;;;;5.22;55.84;100111.59;4770804;29;8233;-73
2022/12/11 01:06:24;;;;;;;;;;;;;;;5.22;55.72;100105.63;4783343;29;6958;-73
2022/12/11 01:10:22;;;;;;;;;;;;;;;5.24;55.84;100111.69;4805268;29;6805;-73
2022/12/11 01:11:37;;;;;;;;;;;;;;;5.23;55.77;100109.94;4793040;29;7174;-73
2022/12/11 01:14:04;;;;;;;;;;;;;;;5.23;55.49;100120.09;4768614;29;7169;-72
2022/12/11 01:16:30;;;;;;;;;;;;;;;5.23;55.77;100127.72;4789222;29;6809;-73
2022/12/11 01:18:56;;;;;;;;;;;;;;;5.21;55.53;100129.25;4789124;29;6800;-72
2022/12/11 01:21:22;;;;;;;;;;;;;;;5.20;56.22;100130.94;4792138;29;6813;-73
2022/12/11 01:23:50;;;;;;;;;;;;;;;5.19;55.70;100130.81;4789282;29;6869;-72
2022/12/11 01:26:16;;;;;;;;;;;;;;;5.19;55.77;100125.75;4774882;29;7060;-72
2022/12/11 01:28:43;;;;;;;;;;;;;;;5.17;56.21;100124.78;4772210;29;6873;-73
2022/12/11 01:31:15;;;;;;;;;;;;;;;5.15;55.96;100129.75;4784800;29;6861;-73
2022/12/11 01:33:41;;;;;;;;;;;;;;;5.13;55.51;100127.13;4783987;29;7669;-73
2022/12/11 01:36:19;;;;;;;;;;;;;;;5.10;56.23;100121.81;4787738;29;7094;-72
2022/12/11 01:38:47;;;;;;;;;;;;;;;5.11;56.05;100131.19;4805513;29;6797;-73
2022/12/11 01:41:14;;;;;;;;;;;;;;;5.11;55.83;100127.78;4783321;29;6805;-73
2022/12/11 01:44:03;;;;;;;;;;;;;;;5.11;55.89;100118.50;4789279;29;7025;-73
2022/12/11 01:46:32;;;;;;;;;;;;;;;5.12;56.01;100120.28;4801157;29;6868;-73
2022/12/11 01:49:01;;;;;;;;;;;;;;;5.14;55.81;100117.81;4788262;29;6853;-73
2022/12/11 01:51:32;;;;;;;;;;;;;;;5.13;56.06;100116.97;4787469;29;7068;-73
2022/12/11 01:54:09;;;;;;;;;;;;;;;5.14;56.46;100107.66;4786354;29;9180;-73
2022/12/11 01:56:39;;;;;;;;;;;;;;;5.13;55.55;100103.34;4786896;29;6863;-72
2022/12/11 01:59:08;;;;;;;;;;;;;;;5.12;55.83;100104.16;4765628;29;7067;-73
2022/12/11 02:02:19;;;;;;;;;;;;;;;5.10;55.50;100095.56;4789588;29;6793;-73
2022/12/11 02:04:47;;;;;;;;;;;;;;;5.02;55.59;100095.03;4788565;29;6881;-73
2022/12/11 02:07:13;;;;;;;;;;;;;;;4.98;55.56;100093.97;4786206;29;7241;-72
2022/12/11 02:09:43;;;;;;;;;;;;;;;4.93;55.53;100087.69;4803312;29;6865;-73
2022/12/11 02:12:32;;;;;;;;;;;;;;;4.90;55.31;100079.00;4785245;29;8717;-73
2022/12/11 02:15:32;;;;;;;;;;;;;;;4.84;56.15;100088.00;4806113;29;7020;-72
2022/12/11 02:18:20;;;;;;;;;;;;;;;4.81;55.88;100086.91;4805452;29;6877;-73
2022/12/11 02:21:20;;;;;;;;;;;;;;;4.79;55.44;100086.78;4770599;29;7149;-72
2022/12/11 02:24:21;;;;;;;;;;;;;;;4.76;55.38;100086.59;4793725;29;8083;-73
2022/12/11 02:27:29;;;;;;;;;;;;;;;4.78;55.88;100094.28;4790472;29;6971;-73
2022/12/11 02:30:05;;;;;;;;;;;;;;;4.79;56.32;100102.03;4793725;29;6821;-73
2022/12/11 02:32:52;;;;;;;;;;;;;;;4.83;56.35;100109.09;4800768;29;6995;-73
2022/12/11 02:35:33;;;;;;;;;;;;;;;4.89;55.48;100107.72;4790389;29;7903;-73
2022/12/11 02:38:21;;;;;;;;;;;;;;;4.93;55.58;100104.63;4790585;29;7217;-73
2022/12/11 02:40:51;;;;;;;;;;;;;;;4.96;55.85;100092.09;4788144;29;7215;-73
2022/12/11 02:43:19;;;;;;;;;;;;;;;5.02;55.64;100094.16;4783336;29;8527;-73
2022/12/11 02:45:46;;;;;;;;;;;;;;;5.04;55.61;100084.97;4783787;29;6789;-73
2022/12/11 02:48:16;;;;;;;;;;;;;;;5.08;55.50;100086.97;4788596;29;6809;-73
2022/12/11 02:50:49;;;;;;;;;;;;;;;5.06;55.50;100086.84;4786768;29;6869;-73
2022/12/11 02:53:22;;;;;;;;;;;;;;;5.04;55.74;100090.06;4791191;29;6805;-73
2022/12/11 02:56:03;;;;;;;;;;;;;;;5.01;55.51;100085.66;4790965;29;6889;-73
2022/12/11 02:58:33;;;;;;;;;;;;;;;5.01;55.38;100085.66;4805675;29;7455;-73
2022/12/11 03:00:59;;;;;;;;;;;;;;;5.03;55.60;100083.22;4797903;29;6793;-73
2022/12/11 03:03:27;;;;;;;;;;;;;;;5.03;55.33;100079.03;4786771;29;7711;-72
2022/12/11 03:05:53;;;;;;;;;;;;;;;5.05;55.87;100077.47;4782844;29;7225;-73
2022/12/11 03:08:18;;;;;;;;;;;;;;;5.05;55.40;100081.66;4802837;29;6805;-72
2022/12/11 03:10:45;;;;;;;;;;;;;;;5.04;55.22;100074.81;4766550;29;6978;-72
2022/12/11 03:13:15;;;;;;;;;;;;;;;5.02;55.29;100067.09;4788024;29;6922;-73
2022/12/11 03:16:05;;;;;;;;;;;;;;;5.03;55.92;100068.88;4788349;29;6813;-73
2022/12/11 03:18:57;;;;;;;;;;;;;;;5.02;55.08;100067.09;4796199;29;7028;-73
2022/12/11 03:21:49;;;;;;;;;;;;;;;5.03;55.42;100063.78;4788793;29;6802;-73
2022/12/11 03:24:28;;;;;;;;;;;;;;;5.05;55.61;100063.88;4787782;29;7423;-73
2022/12/11 03:27:18;;;;;;;;;;;;;;;5.04;55.25;100065.56;4786122;29;6809;-72
2022/12/11 03:29:59;;;;;;;;;;;;;;;5.02;55.18;100071.31;4789643;29;6994;-72
2022/12/11 03:32:53;;;;;;;;;;;;;;;5.00;55.47;100063.56;4785977;29;8661;-72
2022/12/11 03:35:47;;;;;;;;;;;;;;;5.00;55.60;100058.50;4801480;29;7004;-72
2022/12/11 03:38:23;;;;;;;;;;;;;;;5.02;55.29;100062.00;4785674;29;6983;-71
2022/12/11 03:40:56;;;;;;;;;;;;;;;5.03;56.02;100061.25;4794369;29;6884;-72
2022/12/11 03:43:22;;;;;;;;;;;;;;;5.04;55.10;100063.00;4791849;29;6797;-72
2022/12/11 03:45:52;;;;;;;;;;;;;;;5.04;55.41;100063.00;4783909;29;7699;-71
2022/12/11 03:48:22;;;;;;;;;;;;;;;5.05;55.30;100059.69;4784956;29;7615;-72
2022/12/11 03:50:49;;;;;;;;;;;;;;;5.04;55.65;100060.47;4789454;29;8049;-72
2022/12/11 03:53:17;;;;;;;;;;;;;;;5.03;55.53;100053.63;4789061;29;6789;-72
2022/12/11 03:55:45;;;;;;;;;;;;;;;5.04;55.83;100060.47;4797224;29;6798;-72
2022/12/11 03:58:10;;;;;;;;;;;;;;;5.05;55.26;100059.69;4785574;29;6794;-71
2022/12/11 04:00:37;;;;;;;;;;;;;;;5.06;55.89;100063.09;4789649;29;7008;-72
2022/12/11 04:03:12;;;;;;;;;;;;;;;5.08;55.68;100071.72;4798743;29;8829;-72
2022/12/11 04:05:39;;;;;;;;;;;;;;;5.07;55.66;100062.31;4771228;29;7067;-71
2022/12/11 04:08:05;;;;;;;;;;;;;;;5.08;55.73;100062.41;4799570;29;6922;-71
2022/12/11 04:10:30;;;;;;;;;;;;;;;5.09;55.39;100054.00;4785314;29;6826;-71
2022/12/11 04:12:56;;;;;;;;;;;;;;;5.11;55.21;100054.97;4802998;29;6927;-72
2022/12/11 04:15:21;;;;;;;;;;;;;;;5.13;55.28;100058.53;4784706;29;6781;-72
2022/12/11 04:26:05;;;;;;;;;;;;;;;5.10;55.82;100070.16;4793204;29;7112;-72
2022/12/11 04:28:30;;;;;;;;;;;;;;;5.11;55.20;100071.91;4806856;29;7285;-71
2022/12/11 04:30:56;;;;;;;;;;;;;;;5.13;55.18;100065.25;4790043;29;6777;-71
2022/12/11 04:33:22;;;;;;;;;;;;;;;5.14;55.37;100060.28;4801922;29;6833;-71
2022/12/11 04:35:47;;;;;;;;;;;;;;;5.17;55.05;100056.16;4766144;29;7145;-71
2022/12/11 04:38:13;;;;;;;;;;;;;;;5.19;55.35;100059.69;4788706;29;6982;-72
2022/12/11 04:40:39;;;;;;;;;;;;;;;5.19;55.53;100055.50;4806593;29;6845;-72
2022/12/11 04:43:04;;;;;;;;;;;;;;;5.19;55.55;100052.06;4807727;29;6777;-71
2022/12/11 04:45:30;;;;;;;;;;;;;;;5.18;54.82;100043.56;4788317;29;6849;-71
2022/12/11 04:47:56;;;;;;;;;;;;;;;5.16;54.89;100039.16;4806959;29;6865;-72
2022/12/11 04:50:21;;;;;;;;;;;;;;;5.16;55.42;100041.72;4803804;29;6777;-72
2022/12/11 04:52:47;;;;;;;;;;;;;;;5.16;54.91;100039.16;4786787;29;6773;-72
2022/12/11 04:55:12;;;;;;;;;;;;;;;5.14;55.02;100034.88;4800654;29;7163;-71
2022/12/11 04:57:38;;;;;;;;;;;;;;;5.16;55.49;100034.09;4791776;29;6985;-72
2022/12/11 05:00:06;;;;;;;;;;;;;;;5.14;55.65;100022.16;4803517;29;7835;-71
2022/12/11 05:02:37;;;;;;;;;;;;;;;5.17;55.29;100028.22;4800368;29;6761;-71
2022/12/11 05:05:05;;;;;;;;;;;;;;;5.17;55.01;100018.94;4804019;29;6809;-71
2022/12/11 05:07:31;;;;;;;;;;;;;;;5.19;54.98;100021.56;4788014;29;6797;-72
2022/12/11 05:09:57;;;;;;;;;;;;;;;5.17;55.42;100020.59;4789745;29;6790;-71
2022/12/11 05:12:22;;;;;;;;;;;;;;;5.19;54.64;100024.09;4805159;29;6841;-71
2022/12/11 05:14:54;;;;;;;;;;;;;;;5.17;55.04;100018.94;4807063;29;7225;-72
2022/12/11 05:17:20;;;;;;;;;;;;;;;5.16;54.69;100016.31;4784683;29;6940;-71
2022/12/11 05:19:49;;;;;;;;;;;;;;;5.14;55.34;100011.13;4787583;29;7263;-72
2022/12/11 05:22:16;;;;;;;;;;;;;;;5.14;55.21;100014.56;4788468;29;6797;-72
2022/12/11 05:24:42;;;;;;;;;;;;;;;5.14;55.08;100012.00;4804043;29;6849;-71
2022/12/11 05:27:09;;;;;;;;;;;;;;;5.17;55.24;100015.50;4790293;29;6785;-72
2022/12/11 05:29:35;;;;;;;;;;;;;;;5.17;55.19;100021.50;4787193;29;6793;-72
2022/12/11 05:32:01;;;;;;;;;;;;;;;5.20;55.04;100020.78;4800462;29;7590;-71
2022/12/11 05:34:26;;;;;;;;;;;;;;;5.20;54.71;100018.25;4785610;29;6773;-72
2022/12/11 05:36:52;;;;;;;;;;;;;;;5.20;55.17;100018.25;4784057;29;6994;-72
2022/12/11 05:39:18;;;;;;;;;;;;;;;5.16;54.37;100022.25;4777057;29;6770;-72
2022/12/11 05:41:44;;;;;;;;;;;;;;;5.15;54.88;100020.50;4786616;29;7282;-71
2022/12/11 05:44:12;;;;;;;;;;;;;;;5.14;54.26;100018.72;4784630;29;6833;-72
2022/12/11 05:46:38;;;;;;;;;;;;;;;5.14;54.94;100019.63;4785660;29;6794;-71
2022/12/11 05:49:05;;;;;;;;;;;;;;;5.14;54.78;100024.72;4788698;29;6864;-71
2022/12/11 05:51:34;;;;;;;;;;;;;;;5.14;54.42;100022.16;4770658;29;7001;-72
2022/12/11 05:54:02;;;;;;;;;;;;;;;5.13;54.42;100028.03;4799213;29;8495;-71
2022/12/11 05:56:31;;;;;;;;;;;;;;;5.13;54.29;100028.03;4795966;29;6991;-72
2022/12/11 05:59:00;;;;;;;;;;;;;;;5.10;54.76;100022.75;4801711;29;6977;-72
2022/12/11 06:01:30;;;;;;;;;;;;;;;5.06;54.78;100022.44;4785142;29;7012;-72
2022/12/11 06:03:57;;;;;;;;;;;;;;;5.01;54.67;100019.59;4766883;29;8725;-72
2022/12/11 06:06:25;;;;;;;;;;;;;;;4.98;54.81;100019.41;4782028;29;6827;-70
2022/12/11 06:08:53;;;;;;;;;;;;;;;4.97;54.20;100017.66;4741186;29;1242637;-71
2022/12/11 06:11:20;;;;;;;;;;;;;;;4.95;54.46;100014.16;4790931;29;6869;-71
2022/12/11 06:13:46;;;;;;;;;;;;;;;4.95;54.58;100016.69;4790470;29;6929;-72
2022/12/11 06:16:12;;;;;;;;;;;;;;;4.95;54.64;100006.53;4799352;29;6777;-72
2022/12/11 06:18:41;;;;;;;;;;;;;;;4.96;54.81;100008.28;4788095;29;6785;-71
2022/12/11 06:21:13;;;;;;;;;;;;;;;4.97;54.71;100004.97;4786495;29;6793;-72
2022/12/11 06:23:40;;;;;;;;;;;;;;;4.99;54.37;100001.75;4808100;29;7008;-72
2022/12/11 06:26:06;;;;;;;;;;;;;;;5.01;54.58;100009.44;4804865;29;6962;-71
2022/12/11 06:28:31;;;;;;;;;;;;;;;5.04;54.01;100013.84;4768439;29;8573;-72
2022/12/11 06:30:59;;;;;;;;;;;;;;;5.04;54.01;100009.66;4784201;29;6777;-72
2022/12/11 06:33:25;;;;;;;;;;;;;;;5.00;53.76;100012.78;4787043;29;6989;-71
2022/12/11 06:35:51;;;;;;;;;;;;;;;4.96;53.57;100013.38;4785229;29;6797;-71
2022/12/11 06:38:17;;;;;;;;;;;;;;;4.95;54.10;100015.00;4791409;29;7490;-71
2022/12/11 06:40:44;;;;;;;;;;;;;;;4.95;54.26;100009.94;4784981;29;6778;-71
2022/12/11 06:43:10;;;;;;;;;;;;;;;4.95;54.16;100014.16;4786958;29;7246;-72
2022/12/11 06:45:36;;;;;;;;;;;;;;;4.92;53.41;100011.41;4786749;29;6789;-71
2022/12/11 06:48:03;;;;;;;;;;;;;;;4.91;53.81;100017.25;4781375;29;6827;-72
2022/12/11 06:50:29;;;;;;;;;;;;;;;4.86;53.53;100015.31;4801781;29;8307;-72
2022/12/11 06:52:56;;;;;;;;;;;;;;;4.86;53.36;100022.03;4768959;29;7018;-71
2022/12/11 06:55:22;;;;;;;;;;;;;;;4.84;53.56;100019.41;4787432;29;7890;-72
2022/12/11 06:57:48;;;;;;;;;;;;;;;4.82;53.46;100023.50;4803338;29;7004;-71
2022/12/11 07:00:14;;;;;;;;;;;;;;;4.80;53.43;100030.16;4801339;29;6926;-71
2022/12/11 07:02:40;;;;;;;;;;;;;;;4.76;53.45;100029.84;4785903;29;7019;-71
2022/12/11 07:05:06;;;;;;;;;;;;;;;4.70;53.71;100033.75;4790627;29;6860;-72
2022/12/11 07:07:32;;;;;;;;;;;;;;;4.69;53.15;100041.25;4784171;29;6885;-71
2022/12/11 07:09:57;;;;;;;;;;;;;;;4.67;53.65;100037.75;4784755;29;8532;-71
2022/12/11 07:12:23;;;;;;;;;;;;;;;4.65;53.46;100034.22;4770698;29;8473;-72
2022/12/11 07:14:49;;;;;;;;;;;;;;;4.64;53.75;100033.34;4788925;29;7185;-71
2022/12/11 07:17:14;;;;;;;;;;;;;;;4.64;53.66;100030.81;4785431;29;6935;-71
2022/12/11 07:19:41;;;;;;;;;;;;;;;4.64;54.25;100035.88;4802769;29;6785;-71
2022/12/11 07:22:07;;;;;;;;;;;;;;;4.64;53.96;100040.97;4800506;29;6801;-71
2022/12/11 07:24:32;;;;;;;;;;;;;;;4.64;54.02;100022.31;4780366;29;7912;-72
2022/12/11 07:26:58;;;;;;;;;;;;;;;4.65;53.45;100030.03;4798909;29;8484;-72
2022/12/11 07:29:23;;;;;;;;;;;;;;;4.68;53.55;100032.78;4784407;29;7040;-72
2022/12/11 07:31:49;;;;;;;;;;;;;;;4.70;54.40;100045.56;4798187;29;6785;-71
2022/12/11 07:34:15;;;;;;;;;;;;;;;4.71;54.16;100039.69;4786820;29;6785;-72
2022/12/11 07:36:42;;;;;;;;;;;;;;;4.71;54.29;100043.13;4788020;29;7053;-71
2022/12/11 07:39:11;;;;;;;;;;;;;;;4.70;53.34;100035.41;4787260;29;6810;-72
2022/12/11 07:41:37;;;;;;;;;;;;;;;4.67;53.98;100040.28;4780291;29;6989;-71
2022/12/11 07:44:03;;;;;;;;;;;;;;;4.63;53.71;100040.84;4791352;29;6821;-71
2022/12/11 07:46:31;;;;;;;;;;;;;;;4.62;54.01;100036.56;4785105;29;6993;-71
2022/12/11 07:49:02;;;;;;;;;;;;;;;4.62;54.24;100039.09;4789761;29;6793;-72
2022/12/11 07:51:34;;;;;;;;;;;;;;;4.62;54.01;100037.44;4790132;29;7239;-71
2022/12/11 07:54:09;;;;;;;;;;;;;;;4.65;53.68;100036.78;4785062;29;7047;-72
2022/12/11 07:56:35;;;;;;;;;;;;;;;4.67;54.17;100041.16;4783804;29;6813;-72
2022/12/11 07:59:03;;;;;;;;;;;;;;;4.70;54.24;100032.84;4799188;29;6797;-71
2022/12/11 08:01:34;;;;;;;;;;;;;;;4.70;54.31;100035.41;4774463;29;6985;-71
2022/12/11 08:03:59;;;;;;;;;;;;;;;4.70;54.28;100040.47;4780367;29;7957;-71
2022/12/11 08:06:29;;;;;;;;;;;;;;;4.70;53.28;100040.47;4783034;29;6980;-71
2022/12/11 08:08:57;;;;;;;;;;;;;;;4.70;53.95;100043.00;4782039;29;7348;-72
2022/12/11 08:11:23;;;;;;;;;;;;;;;4.71;53.83;100047.31;4785807;29;6805;-71
2022/12/11 08:13:49;;;;;;;;;;;;;;;4.69;53.30;100034.53;4787751;29;7041;-72
2022/12/11 08:16:17;;;;;;;;;;;;;;;4.70;53.68;100040.47;4793280;29;7034;-71
2022/12/11 08:18:45;;;;;;;;;;;;;;;4.70;53.88;100040.47;4804200;29;6825;-71
2022/12/11 08:21:15;;;;;;;;;;;;;;;4.70;54.15;100038.84;4785990;29;6805;-71
2022/12/11 08:23:41;;;;;;;;;;;;;;;4.71;53.80;100034.63;4803920;29;7275;-70
2022/12/11 08:26:15;;;;;;;;;;;;;;;4.70;53.68;100038.84;4787566;29;6840;-72
2022/12/11 08:28:40;;;;;;;;;;;;;;;4.69;53.34;100037.06;4789125;29;8075;-72
2022/12/11 08:31:09;;;;;;;;;;;;;;;4.69;53.48;100039.63;4809908;29;7351;-71
2022/12/11 08:33:37;;;;;;;;;;;;;;;4.70;53.40;100043.91;4776394;29;8830;-71
2022/12/11 08:36:05;;;;;;;;;;;;;;;4.72;53.74;100042.34;4790323;29;8409;-70
2022/12/11 08:38:32;;;;;;;;;;;;;;;4.76;53.74;100042.53;4804047;29;6938;-72
2022/12/11 08:40:58;;;;;;;;;;;;;;;4.78;53.93;100046.94;4793988;29;6922;-71
2022/12/11 08:43:24;;;;;;;;;;;;;;;4.77;53.15;100045.19;4809356;29;6797;-71
2022/12/11 08:45:49;;;;;;;;;;;;;;;4.77;53.79;100050.25;4810003;29;7880;-71
2022/12/11 08:48:16;;;;;;;;;;;;;;;4.78;53.36;100056.22;4790438;29;6785;-72
2022/12/11 08:50:41;;;;;;;;;;;;;;;4.74;53.53;100045.00;4784171;29;7361;-71
2022/12/11 08:53:08;;;;;;;;;;;;;;;4.69;53.04;100051.41;4784933;29;8494;-71
2022/12/11 08:55:34;;;;;;;;;;;;;;;4.69;53.04;100046.34;4776629;29;8499;-71
2022/12/11 08:57:59;;;;;;;;;;;;;;;4.67;53.83;100043.69;4793103;29;6777;-72
2022/12/11 09:00:25;;;;;;;;;;;;;;;4.70;53.79;100043.00;4788400;29;8682;-72
2022/12/11 09:02:50;;;;;;;;;;;;;;;4.71;53.11;100040.59;4787734;29;6849;-72
2022/12/11 09:05:16;;;;;;;;;;;;;;;4.71;53.02;100035.50;4806302;29;7639;-71
2022/12/11 09:07:42;;;;;;;;;;;;;;;4.69;53.74;100043.81;4801129;29;8546;-71
2022/12/11 09:10:08;;;;;;;;;;;;;;;4.65;52.86;100039.31;4789534;29;6785;-71
2022/12/11 09:12:35;;;;;;;;;;;;;;;4.63;52.90;100039.19;4806370;29;6873;-70
2022/12/11 09:15:01;;;;;;;;;;;;;;;4.64;53.48;100043.50;4787210;29;7036;-71
2022/12/11 09:17:27;;;;;;;;;;;;;;;4.66;53.85;100041.94;4785156;29;6881;-71
2022/12/11 09:19:52;;;;;;;;;;;;;;;4.71;52.84;100047.31;4774121;29;8465;-71
2022/12/11 09:22:18;;;;;;;;;;;;;;;4.77;52.98;100041.75;4788006;29;6943;-70
2022/12/11 09:24:45;;;;;;;;;;;;;;;4.80;53.44;100035.22;4793223;29;7156;-72
2022/12/11 09:27:10;;;;;;;;;;;;;;;4.81;53.42;100031.91;4769493;29;6994;-70
2022/12/11 09:29:38;;;;;;;;;;;;;;;4.83;52.59;100034.56;4809685;29;6785;-70
2022/12/11 09:32:04;;;;;;;;;;;;;;;4.84;53.03;100043.91;4784797;29;7057;-71
2022/12/11 09:34:30;;;;;;;;;;;;;;;4.88;52.78;100037.38;4793941;29;6786;-72
2022/12/11 09:36:56;;;;;;;;;;;;;;;4.95;53.30;100029.41;4784789;29;7917;-72
2022/12/11 09:39:21;;;;;;;;;;;;;;;5.00;53.59;100038.19;4789322;29;8850;-71
2022/12/11 09:42:19;;;;;;;;;;;;;;;5.09;53.48;100038.75;4790200;29;6769;-71
2022/12/11 09:45:00;;;;;;;;;;;;;;;5.18;53.11;100033.41;4797480;29;7008;-71
2022/12/11 09:47:34;;;;;;;;;;;;;;;5.27;52.85;100043.25;4786206;29;8868;-71
2022/12/11 09:50:20;;;;;;;;;;;;;;;5.36;53.16;100033.69;4804702;29;9690;-71
2022/12/11 09:53:25;;;;;;;;;;;;;;;5.42;52.80;100029.00;4803262;29;6897;-71
2022/12/11 09:56:03;;;;;;;;;;;;;;;5.44;52.46;100016.38;4800690;29;7076;-71
2022/12/11 09:59:04;;;;;;;;;;;;;;;5.47;52.17;100013.13;4809011;29;6814;-72
2022/12/11 10:01:50;;;;;;;;;;;;;;;5.49;51.98;100020.09;4779345;29;7001;-72
2022/12/11 10:04:36;;;;;;;;;;;;;;;5.53;52.53;100016.06;4789383;29;7309;-71
2022/12/11 10:07:59;;;;;;;;;;;;;;;5.61;52.44;100022.53;4791280;29;6821;-72
2022/12/11 10:10:48;;;;;;;;;;;;;;;5.69;52.17;100017.91;4803516;29;6991;-72
2022/12/11 10:13:57;;;;;;;;;;;;;;;5.75;52.04;100018.28;4800708;29;7198;-71
2022/12/11 10:16:43;;;;;;;;;;;;;;;5.79;51.92;100011.69;4804461;29;7914;-71
2022/12/11 10:19:21;;;;;;;;;;;;;;;5.78;51.42;100015.03;4786224;29;7168;-71
2022/12/11 10:21:50;;;;;;;;;;;;;;;5.79;51.56;100016.78;4794825;29;6825;-71
2022/12/11 10:24:38;;;;;;;;;;;;;;;5.85;51.98;100009.53;4788073;29;6789;-71
2022/12/11 10:27:20;;;;;;;;;;;;;;;5.96;51.95;100003.41;4787048;29;7348;-72
2022/12/11 10:29:54;;;;;;;;;;;;;;;6.12;51.91;100004.38;4796899;29;6809;-71
2022/12/11 10:33:08;;;;;;;;;;;;;;;6.31;51.68;100000.38;4784729;29;6885;-71
2022/12/11 10:35:53;;;;;;;;;;;;;;;6.53;51.66;100005.06;4807407;29;6804;-71
2022/12/11 10:38:26;;;;;;;;;;;;;;;6.73;52.11;100000.25;4806321;29;7194;-71
2022/12/11 10:41:23;;;;;;;;;;;;;;;6.90;51.53;99994.41;4782676;29;8552;-72
2022/12/11 10:43:52;;;;;;;;;;;;;;;7.00;50.67;99993.25;4757429;29;7241;-71
2022/12/11 10:46:26;;;;;;;;;;;;;;;7.06;50.71;99995.28;4801387;29;6806;-72
2022/12/11 10:48:59;;;;;;;;;;;;;;;7.13;50.29;99989.72;4804979;29;7244;-73
2022/12/11 10:51:35;;;;;;;;;;;;;;;7.18;49.95;99985.75;4785523;29;7060;-71
2022/12/11 10:54:38;;;;;;;;;;;;;;;7.22;49.94;99981.69;4770107;29;7141;-71
2022/12/11 10:57:07;;;;;;;;;;;;;;;7.20;50.22;99983.28;4784329;29;6813;-72
2022/12/11 10:59:48;;;;;;;;;;;;;;;7.17;50.16;99975.47;4786627;29;6801;-71
2022/12/11 11:02:40;;;;;;;;;;;;;;;7.12;49.41;99982.00;4782142;29;8631;-71
2022/12/11 11:05:31;;;;;;;;;;;;;;;7.11;49.84;99981.13;4803429;29;6927;-71
2022/12/11 11:08:20;;;;;;;;;;;;;;;7.16;50.07;99972.03;4780553;29;6817;-72
2022/12/11 11:10:58;;;;;;;;;;;;;;;7.25;50.22;99968.25;4785025;29;7219;-71
2022/12/11 11:13:30;;;;;;;;;;;;;;;7.30;49.84;99964.28;4782439;29;6793;-71
2022/12/11 11:16:11;;;;;;;;;;;;;;;7.33;48.99;99959.34;4790382;29;6860;-72
2022/12/11 11:18:40;;;;;;;;;;;;;;;7.33;48.96;99952.56;4790016;29;8165;-72
2022/12/11 11:21:16;;;;;;;;;;;;;;;7.36;49.62;99955.28;4789778;29;7106;-71
2022/12/11 11:23:43;;;;;;;;;;;;;;;7.41;49.18;99949.56;4783183;29;8484;-71
2022/12/11 11:26:11;;;;;;;;;;;;;;;7.44;49.62;99942.94;4786349;29;6869;-72
2022/12/11 11:28:45;;;;;;;;;;;;;;;7.45;49.56;99933.63;4804165;29;6789;-71
2022/12/11 11:31:14;;;;;;;;;;;;;;;7.52;48.64;99930.59;4787033;29;6810;-72
2022/12/11 11:33:58;;;;;;;;;;;;;;;7.63;48.70;99929.50;4784672;29;7168;-71
2022/12/11 11:36:27;;;;;;;;;;;;;;;7.68;48.41;99928.84;4784068;29;7038;-72
2022/12/11 11:39:24;;;;;;;;;;;;;;;7.69;47.85;99925.50;4780923;29;6834;-72
2022/12/11 11:42:19;;;;;;;;;;;;;;;7.67;48.66;99924.56;4803053;29;7688;-72
2022/12/11 11:45:25;;;;;;;;;;;;;;;7.56;47.28;99919.78;4800677;29;7266;-71
2022/12/11 11:48:26;;;;;;;;;;;;;;;7.46;47.99;99918.41;4737184;29;8595;-72
2022/12/11 11:50:53;;;;;;;;;;;;;;;7.41;48.21;99917.28;4772407;29;6958;-72
2022/12/11 11:53:40;;;;;;;;;;;;;;;7.42;47.54;99918.16;4805250;29;7209;-71
2022/12/11 11:56:24;;;;;;;;;;;;;;;7.42;47.70;99908.84;4773710;29;8531;-72
2022/12/11 11:59:18;;;;;;;;;;;;;;;7.42;47.41;99910.50;4808188;29;7165;-72
2022/12/11 12:01:43;;;;;;;;;;;;;;;7.41;48.21;99912.19;4807412;29;6817;-71
2022/12/11 12:04:10;;;;;;;;;;;;;;;7.41;48.00;99912.19;4793242;29;6777;-71
2022/12/11 12:07:08;;;;;;;;;;;;;;;7.39;48.25;99903.59;4789618;29;6790;-71
2022/12/11 12:10:11;;;;;;;;;;;;;;;7.39;48.01;99900.16;4790869;29;6809;-71
2022/12/11 12:12:51;;;;;;;;;;;;;;;7.43;47.45;99904.59;4806243;29;6817;-72
2022/12/11 12:15:54;;;;;;;;;;;;;;;7.46;47.34;99899.69;4790150;29;6997;-72
2022/12/11 12:19:06;;;;;;;;;;;;;;;7.46;47.46;99900.53;4808092;29;6997;-72
2022/12/11 12:21:37;;;;;;;;;;;;;;;7.46;48.04;99904.78;4790716;29;6829;-71
2022/12/11 12:24:43;;;;;;;;;;;;;;;7.44;47.43;99891.94;4791482;29;7268;-72
2022/12/11 12:27:27;;;;;;;;;;;;;;;7.47;48.31;99896.34;4788595;29;7021;-71
2022/12/11 12:30:10;;;;;;;;;;;;;;;7.54;47.58;99888.22;4789604;29;6817;-71
2022/12/11 12:33:04;;;;;;;;;;;;;;;7.60;47.66;99895.31;4790813;29;11442;-71
2022/12/11 12:35:42;;;;;;;;;;;;;;;7.65;47.74;99896.41;4805767;29;6993;-71
2022/12/11 12:38:46;;;;;;;;;;;;;;;7.71;47.81;99891.63;4787136;29;7047;-72
2022/12/11 12:41:34;;;;;;;;;;;;;;;7.75;47.79;99902.88;4805179;29;6828;-71
2022/12/11 12:44:14;;;;;;;;;;;;;;;7.76;47.70;99895.28;4812037;29;6813;-72
2022/12/11 12:46:51;;;;;;;;;;;;;;;7.78;46.84;99895.38;4790051;29;6817;-72
2022/12/11 12:49:39;;;;;;;;;;;;;;;7.76;47.85;99889.31;4806613;29;7226;-72
2022/12/11 12:52:35;;;;;;;;;;;;;;;7.75;47.56;99895.22;4808529;29;6793;-71
2022/12/11 12:55:27;;;;;;;;;;;;;;;7.75;47.73;99893.53;4780302;29;8591;-71
2022/12/11 12:58:01;;;;;;;;;;;;;;;7.76;47.60;99897.81;4804849;29;8562;-71
2022/12/11 13:00:40;;;;;;;;;;;;;;;7.77;46.83;99888.50;4792075;29;6805;-71
2022/12/11 13:03:21;;;;;;;;;;;;;;;7.77;47.46;99888.50;4786865;29;7112;-72
2022/12/11 13:06:03;;;;;;;;;;;;;;;7.74;46.62;99896.03;4787814;29;6950;-71
2022/12/11 13:08:49;;;;;;;;;;;;;;;7.71;47.63;99896.72;4789616;29;6841;-72
2022/12/11 13:11:19;;;;;;;;;;;;;;;7.71;47.13;99891.63;4790992;29;6941;-72
2022/12/11 13:14:26;;;;;;;;;;;;;;;7.69;47.53;99897.44;4792584;29;6797;-71
2022/12/11 13:17:21;;;;;;;;;;;;;;;7.63;46.74;99898.00;4792584;29;7181;-72
2022/12/11 13:19:51;;;;;;;;;;;;;;;7.60;46.31;99898.72;4788402;29;6804;-72
2022/12/11 13:22:23;;;;;;;;;;;;;;;7.59;47.24;99896.97;4799082;29;6888;-71
2022/12/11 13:25:19;;;;;;;;;;;;;;;7.54;47.09;99898.41;4787893;29;6813;-71
2022/12/11 13:27:45;;;;;;;;;;;;;;;7.47;47.40;99894.66;4785963;29;7222;-70
2022/12/11 13:30:13;;;;;;;;;;;;;;;7.42;46.31;99905.41;4788732;29;7023;-71
2022/12/11 13:32:48;;;;;;;;;;;;;;;7.36;47.26;99903.41;4808331;29;6997;-71
2022/12/11 13:35:16;;;;;;;;;;;;;;;7.29;46.83;99897.13;4790668;29;7341;-71
2022/12/11 13:37:50;;;;;;;;;;;;;;;7.22;46.89;99905.22;4793959;29;7253;-70
2022/12/11 13:40:26;;;;;;;;;;;;;;;7.15;46.92;99909.13;4792226;29;7000;-70